sensor_id;sensor_type;location;lat;lon;timestamp;pressure;altitude;pressure_sealevel;temperature;humidity
79645;BME280;69117;47.148;18.954;2023-07-24T00:00:50;100320.84;;;21.40;100.00
79645;BME280;69117;47.148;18.954;2023-07-24T00:03:51;100316.09;;;21.36;100.00
79645;BME280;69117;47.148;18.954;2023-07-24T00:06:56;100326.47;;;21.25;100.00
79645;BME280;69117;47.148;18.954;2023-07-24T00:09:57;100311.84;;;21.21;100.00
79645;BME280;69117;47.148;18.954;2023-07-24T00:12:59;100305.44;;;21.16;100.00
79645;BME280;69117;47.148;18.954;2023-07-24T00:16:06;100307.56;;;21.07;100.00
79645;BME280;69117;47.148;18.954;2023-07-24T00:19:07;100310.28;;;21.00;100.00
79645;BME280;69117;47.148;18.954;2023-07-24T00:22:09;100307.22;;;20.90;100.00
79645;BME280;69117;47.148;18.954;2023-07-24T00:25:11;100312.19;;;20.87;100.00
79645;BME280;69117;47.148;18.954;2023-07-24T00:28:12;100309.53;;;20.80;100.00
79645;BME280;69117;47.148;18.954;2023-07-24T00:31:14;100308.09;;;20.77;100.00
79645;BME280;69117;47.148;18.954;2023-07-24T00:34:16;100308.94;;;20.71;100.00
79645;BME280;69117;47.148;18.954;2023-07-24T00:37:17;100317.84;;;20.65;100.00
79645;BME280;69117;47.148;18.954;2023-07-24T00:40:19;100309.81;;;20.58;100.00
79645;BME280;69117;47.148;18.954;2023-07-24T00:43:20;100309.59;;;20.60;100.00
79645;BME280;69117;47.148;18.954;2023-07-24T00:46:23;100303.44;;;20.53;100.00
79645;BME280;69117;47.148;18.954;2023-07-24T00:49:25;100301.13;;;20.56;100.00
79645;BME280;69117;47.148;18.954;2023-07-24T00:52:26;100303.44;;;20.53;100.00
79645;BME280;69117;47.148;18.954;2023-07-24T00:55:28;100300.34;;;20.43;100.00
79645;BME280;69117;47.148;18.954;2023-07-24T00:58:30;100308.19;;;20.38;100.00
79645;BME280;69117;47.148;18.954;2023-07-24T01:01:32;100299.31;;;20.37;100.00
79645;BME280;69117;47.148;18.954;2023-07-24T01:04:34;100298.28;;;20.38;100.00
79645;BME280;69117;47.148;18.954;2023-07-24T01:07:36;100301.19;;;20.36;100.00
79645;BME280;69117;47.148;18.954;2023-07-24T01:10:38;100297.06;;;20.34;100.00
79645;BME280;69117;47.148;18.954;2023-07-24T01:13:42;100301.16;;;20.30;100.00
79645;BME280;69117;47.148;18.954;2023-07-24T01:16:47;100285.09;;;20.17;100.00
79645;BME280;69117;47.148;18.954;2023-07-24T01:19:54;100285.09;;;20.23;100.00
79645;BME280;69117;47.148;18.954;2023-07-24T01:26:36;100294.56;;;20.32;100.00
79645;BME280;69117;47.148;18.954;2023-07-24T01:29:37;100281.81;;;20.21;100.00
79645;BME280;69117;47.148;18.954;2023-07-24T01:32:39;100282.59;;;20.28;100.00
79645;BME280;69117;47.148;18.954;2023-07-24T01:35:42;100284.22;;;20.36;100.00
79645;BME280;69117;47.148;18.954;2023-07-24T01:38:45;100278.09;;;20.22;100.00
79645;BME280;69117;47.148;18.954;2023-07-24T01:41:49;100275.41;;;20.22;100.00
79645;BME280;69117;47.148;18.954;2023-07-24T01:44:55;100273.13;;;20.06;100.00
79645;BME280;69117;47.148;18.954;2023-07-24T01:47:56;100265.09;;;19.99;100.00
79645;BME280;69117;47.148;18.954;2023-07-24T01:50:58;100271.72;;;19.90;100.00
79645;BME280;69117;47.148;18.954;2023-07-24T01:54:00;100265.56;;;19.83;100.00
79645;BME280;69117;47.148;18.954;2023-07-24T01:57:01;100258.50;;;19.62;100.00
79645;BME280;69117;47.148;18.954;2023-07-24T02:00:04;100262.84;;;19.56;100.00
79645;BME280;69117;47.148;18.954;2023-07-24T02:03:05;100268.38;;;19.48;100.00
79645;BME280;69117;47.148;18.954;2023-07-24T02:06:07;100266.75;;;19.47;100.00
79645;BME280;69117;47.148;18.954;2023-07-24T02:09:10;100260.97;;;19.37;100.00
79645;BME280;69117;47.148;18.954;2023-07-24T02:12:11;100259.53;;;19.34;100.00
79645;BME280;69117;47.148;18.954;2023-07-24T02:15:13;100275.19;;;19.31;100.00
79645;BME280;69117;47.148;18.954;2023-07-24T02:18:14;100273.75;;;19.35;100.00
79645;BME280;69117;47.148;18.954;2023-07-24T02:21:16;100272.28;;;19.32;100.00
79645;BME280;69117;47.148;18.954;2023-07-24T02:24:19;100276.00;;;19.44;100.00
79645;BME280;69117;47.148;18.954;2023-07-24T02:27:30;100278.47;;;19.39;100.00
79645;BME280;69117;47.148;18.954;2023-07-24T02:30:39;100276.22;;;19.43;100.00
79645;BME280;69117;47.148;18.954;2023-07-24T02:33:41;100279.09;;;19.41;100.00
79645;BME280;69117;47.148;18.954;2023-07-24T02:36:42;100272.06;;;19.20;100.00
79645;BME280;69117;47.148;18.954;2023-07-24T02:39:45;100276.41;;;19.35;100.00
79645;BME280;69117;47.148;18.954;2023-07-24T02:42:46;100275.78;;;19.33;100.00
79645;BME280;69117;47.148;18.954;2023-07-24T02:45:48;100284.22;;;19.23;100.00
79645;BME280;69117;47.148;18.954;2023-07-24T02:48:51;100284.22;;;19.16;100.00
79645;BME280;69117;47.148;18.954;2023-07-24T02:51:52;100289.16;;;19.13;100.00
79645;BME280;69117;47.148;18.954;2023-07-24T02:54:54;100265.06;;;19.13;100.00
79645;BME280;69117;47.148;18.954;2023-07-24T02:57:56;100283.75;;;19.06;100.00
79645;BME280;69117;47.148;18.954;2023-07-24T03:01:04;100279.84;;;19.09;100.00
79645;BME280;69117;47.148;18.954;2023-07-24T03:04:07;100272.59;;;18.96;100.00
79645;BME280;69117;47.148;18.954;2023-07-24T03:07:09;100268.03;;;18.83;100.00
79645;BME280;69117;47.148;18.954;2023-07-24T03:10:11;100276.31;;;18.88;100.00
79645;BME280;69117;47.148;18.954;2023-07-24T03:13:12;100262.03;;;18.74;100.00
79645;BME280;69117;47.148;18.954;2023-07-24T03:16:14;100257.63;;;18.60;100.00
79645;BME280;69117;47.148;18.954;2023-07-24T03:19:16;100262.41;;;18.71;100.00
79645;BME280;69117;47.148;18.954;2023-07-24T03:22:19;100260.94;;;18.69;100.00
79645;BME280;69117;47.148;18.954;2023-07-24T03:25:20;100256.63;;;18.68;100.00
79645;BME280;69117;47.148;18.954;2023-07-24T03:28:22;100258.28;;;18.69;100.00
79645;BME280;69117;47.148;18.954;2023-07-24T03:31:23;100253.94;;;18.61;100.00
79645;BME280;69117;47.148;18.954;2023-07-24T03:34:25;100251.66;;;18.58;100.00
79645;BME280;69117;47.148;18.954;2023-07-24T03:37:27;100247.09;;;18.52;100.00
79645;BME280;69117;47.148;18.954;2023-07-24T03:40:28;100244.19;;;18.47;100.00
79645;BME280;69117;47.148;18.954;2023-07-24T03:43:30;100248.97;;;18.58;100.00
79645;BME280;69117;47.148;18.954;2023-07-24T03:46:32;100250.41;;;18.61;100.00
79645;BME280;69117;47.148;18.954;2023-07-24T03:49:34;100250.81;;;18.58;100.00
79645;BME280;69117;47.148;18.954;2023-07-24T03:52:36;100255.81;;;18.67;100.00
79645;BME280;69117;47.148;18.954;2023-07-24T03:55:37;100247.94;;;18.59;100.00
79645;BME280;69117;47.148;18.954;2023-07-24T03:58:39;100253.53;;;18.64;100.00
79645;BME280;69117;47.148;18.954;2023-07-24T04:01:41;100247.53;;;18.62;100.00
79645;BME280;69117;47.148;18.954;2023-07-24T04:04:42;100248.28;;;18.91;100.00
79645;BME280;69117;47.148;18.954;2023-07-24T04:07:44;100246.47;;;18.91;100.00
79645;BME280;69117;47.148;18.954;2023-07-24T04:10:46;100261.56;;;19.12;100.00
79645;BME280;69117;47.148;18.954;2023-07-24T04:13:47;100250.44;;;19.22;100.00
79645;BME280;69117;47.148;18.954;2023-07-24T04:16:49;100247.56;;;19.37;100.00
79645;BME280;69117;47.148;18.954;2023-07-24T04:19:51;100245.31;;;19.54;100.00
79645;BME280;69117;47.148;18.954;2023-07-24T04:22:52;100239.78;;;19.68;100.00
79645;BME280;69117;47.148;18.954;2023-07-24T04:25:54;100232.97;;;19.86;100.00
79645;BME280;69117;47.148;18.954;2023-07-24T04:28:56;100230.25;;;19.99;100.00
79645;BME280;69117;47.148;18.954;2023-07-24T04:31:57;100239.06;;;20.20;100.00
79645;BME280;69117;47.148;18.954;2023-07-24T04:34:59;100248.53;;;20.35;100.00
79645;BME280;69117;47.148;18.954;2023-07-24T04:38:00;100246.25;;;20.52;100.00
79645;BME280;69117;47.148;18.954;2023-07-24T04:41:02;100241.38;;;20.74;100.00
79645;BME280;69117;47.148;18.954;2023-07-24T04:44:04;100238.00;;;20.92;100.00
79645;BME280;69117;47.148;18.954;2023-07-24T04:47:05;100240.16;;;21.09;100.00
79645;BME280;69117;47.148;18.954;2023-07-24T04:50:07;100238.00;;;21.24;100.00
79645;BME280;69117;47.148;18.954;2023-07-24T04:53:09;100239.38;;;21.40;100.00
79645;BME280;69117;47.148;18.954;2023-07-24T04:56:11;100253.97;;;21.50;100.00
79645;BME280;69117;47.148;18.954;2023-07-24T04:59:12;100245.38;;;21.67;100.00
79645;BME280;69117;47.148;18.954;2023-07-24T05:02:14;100248.09;;;21.85;100.00
79645;BME280;69117;47.148;18.954;2023-07-24T05:05:16;100249.38;;;22.01;100.00
79645;BME280;69117;47.148;18.954;2023-07-24T05:08:17;100258.16;;;22.15;100.00
79645;BME280;69117;47.148;18.954;2023-07-24T05:11:19;100255.81;;;22.25;100.00
79645;BME280;69117;47.148;18.954;2023-07-24T05:14:21;100260.44;;;22.36;100.00
79645;BME280;69117;47.148;18.954;2023-07-24T05:17:28;100262.91;;;22.56;100.00
79645;BME280;69117;47.148;18.954;2023-07-24T05:20:30;100259.44;;;22.68;100.00
79645;BME280;69117;47.148;18.954;2023-07-24T05:23:32;100259.66;;;22.84;100.00
79645;BME280;69117;47.148;18.954;2023-07-24T05:26:34;100265.34;;;22.95;100.00
79645;BME280;69117;47.148;18.954;2023-07-24T05:29:35;100263.66;;;23.12;100.00
79645;BME280;69117;47.148;18.954;2023-07-24T05:32:37;100261.72;;;23.31;100.00
79645;BME280;69117;47.148;18.954;2023-07-24T05:35:39;100249.44;;;23.47;100.00
79645;BME280;69117;47.148;18.954;2023-07-24T05:38:40;100255.97;;;23.69;100.00
79645;BME280;69117;47.148;18.954;2023-07-24T05:41:42;100255.97;;;23.93;100.00
79645;BME280;69117;47.148;18.954;2023-07-24T05:44:44;100253.50;;;24.03;100.00
79645;BME280;69117;47.148;18.954;2023-07-24T05:47:45;100240.47;;;24.12;100.00
79645;BME280;69117;47.148;18.954;2023-07-24T05:50:47;100253.09;;;24.35;100.00
79645;BME280;69117;47.148;18.954;2023-07-24T05:53:49;100252.63;;;24.50;100.00
79645;BME280;69117;47.148;18.954;2023-07-24T05:56:52;100241.31;;;24.64;100.00
79645;BME280;69117;47.148;18.954;2023-07-24T05:59:54;100245.63;;;24.77;100.00
79645;BME280;69117;47.148;18.954;2023-07-24T06:02:56;100237.78;;;24.76;100.00
79645;BME280;69117;47.148;18.954;2023-07-24T06:05:57;100235.19;;;24.98;100.00
79645;BME280;69117;47.148;18.954;2023-07-24T06:08:59;100236.00;;;24.98;100.00
79645;BME280;69117;47.148;18.954;2023-07-24T06:12:01;100240.19;;;25.18;100.00
79645;BME280;69117;47.148;18.954;2023-07-24T06:15:03;100235.75;;;25.28;100.00
79645;BME280;69117;47.148;18.954;2023-07-24T06:18:05;100228.66;;;25.39;100.00
79645;BME280;69117;47.148;18.954;2023-07-24T06:21:06;100240.28;;;25.56;100.00
79645;BME280;69117;47.148;18.954;2023-07-24T06:24:08;100230.03;;;25.58;100.00
79645;BME280;69117;47.148;18.954;2023-07-24T06:27:13;100242.81;;;25.80;100.00
79645;BME280;69117;47.148;18.954;2023-07-24T06:30:15;100250.06;;;25.91;100.00
79645;BME280;69117;47.148;18.954;2023-07-24T06:33:17;100243.66;;;25.97;100.00
79645;BME280;69117;47.148;18.954;2023-07-24T06:36:18;100245.69;;;26.29;100.00
79645;BME280;69117;47.148;18.954;2023-07-24T06:39:20;100238.44;;;26.35;100.00
79645;BME280;69117;47.148;18.954;2023-07-24T06:42:22;100248.97;;;26.31;100.00
79645;BME280;69117;47.148;18.954;2023-07-24T06:45:23;100241.00;;;26.63;100.00
79645;BME280;69117;47.148;18.954;2023-07-24T06:48:25;100226.38;;;26.64;100.00
79645;BME280;69117;47.148;18.954;2023-07-24T06:51:26;100227.63;;;26.79;100.00
79645;BME280;69117;47.148;18.954;2023-07-24T06:54:28;100221.06;;;26.75;100.00
79645;BME280;69117;47.148;18.954;2023-07-24T06:57:30;100230.19;;;26.90;100.00
79645;BME280;69117;47.148;18.954;2023-07-24T07:00:31;100227.41;;;26.85;100.00
79645;BME280;69117;47.148;18.954;2023-07-24T07:03:33;100223.44;;;27.20;100.00
79645;BME280;69117;47.148;18.954;2023-07-24T07:06:36;100213.44;;;27.58;100.00
79645;BME280;69117;47.148;18.954;2023-07-24T07:09:43;100205.28;;;27.58;100.00
79645;BME280;69117;47.148;18.954;2023-07-24T07:12:44;100207.53;;;27.66;100.00
79645;BME280;69117;47.148;18.954;2023-07-24T07:15:46;100211.41;;;27.75;100.00
79645;BME280;69117;47.148;18.954;2023-07-24T07:18:48;100217.44;;;27.82;100.00
79645;BME280;69117;47.148;18.954;2023-07-24T07:21:50;100219.94;;;27.94;100.00
79645;BME280;69117;47.148;18.954;2023-07-24T07:24:52;100202.13;;;28.19;100.00
79645;BME280;69117;47.148;18.954;2023-07-24T07:27:54;100197.09;;;28.43;100.00
79645;BME280;69117;47.148;18.954;2023-07-24T07:30:55;100196.63;;;28.61;100.00
79645;BME280;69117;47.148;18.954;2023-07-24T07:33:57;100199.41;;;28.87;100.00
79645;BME280;69117;47.148;18.954;2023-07-24T07:36:59;100197.47;;;28.92;100.00
79645;BME280;69117;47.148;18.954;2023-07-24T07:40:00;100192.38;;;29.21;99.35
79645;BME280;69117;47.148;18.954;2023-07-24T07:43:02;100195.34;;;29.05;97.56
79645;BME280;69117;47.148;18.954;2023-07-24T07:46:04;100194.75;;;28.82;95.20
79645;BME280;69117;47.148;18.954;2023-07-24T07:49:05;100196.94;;;28.95;93.35
79645;BME280;69117;47.148;18.954;2023-07-24T07:52:07;100201.38;;;29.17;96.20
79645;BME280;69117;47.148;18.954;2023-07-24T07:55:08;100189.13;;;29.30;94.63
79645;BME280;69117;47.148;18.954;2023-07-24T07:58:10;100187.97;;;29.77;93.05
79645;BME280;69117;47.148;18.954;2023-07-24T08:01:12;100202.09;;;29.99;92.65
79645;BME280;69117;47.148;18.954;2023-07-24T08:04:14;100191.81;;;29.60;84.36
79645;BME280;69117;47.148;18.954;2023-07-24T08:07:15;100182.00;;;29.44;86.95
79645;BME280;69117;47.148;18.954;2023-07-24T08:10:17;100182.03;;;29.18;83.43
79645;BME280;69117;47.148;18.954;2023-07-24T08:13:19;100171.41;;;29.42;85.28
79645;BME280;69117;47.148;18.954;2023-07-24T08:16:20;100180.38;;;29.43;82.47
79645;BME280;69117;47.148;18.954;2023-07-24T08:19:22;100170.41;;;30.19;79.03
79645;BME280;69117;47.148;18.954;2023-07-24T08:22:24;100160.97;;;30.55;81.68
79645;BME280;69117;47.148;18.954;2023-07-24T08:25:25;100177.78;;;30.73;80.86
79645;BME280;69117;47.148;18.954;2023-07-24T08:28:27;100170.41;;;30.24;74.80
79645;BME280;69117;47.148;18.954;2023-07-24T08:31:29;100174.00;;;30.69;76.13
79645;BME280;69117;47.148;18.954;2023-07-24T08:34:31;100169.16;;;31.00;77.62
79645;BME280;69117;47.148;18.954;2023-07-24T08:37:33;100159.38;;;30.94;75.66
79645;BME280;69117;47.148;18.954;2023-07-24T08:40:34;100155.06;;;30.88;70.42
79645;BME280;69117;47.148;18.954;2023-07-24T08:43:39;100157.00;;;31.16;67.47
79645;BME280;69117;47.148;18.954;2023-07-24T08:46:42;100164.75;;;31.04;66.79
79645;BME280;69117;47.148;18.954;2023-07-24T08:49:47;100145.13;;;31.31;67.30
79645;BME280;69117;47.148;18.954;2023-07-24T08:52:50;100150.56;;;31.31;56.84
79645;BME280;69117;47.148;18.954;2023-07-24T08:55:52;100143.50;;;31.35;55.57
79645;BME280;69117;47.148;18.954;2023-07-24T08:58:56;100141.31;;;31.32;55.24
79645;BME280;69117;47.148;18.954;2023-07-24T09:01:58;100146.66;;;31.47;54.15
79645;BME280;69117;47.148;18.954;2023-07-24T09:04:59;100146.06;;;31.51;55.93
79645;BME280;69117;47.148;18.954;2023-07-24T09:08:01;100147.81;;;31.65;52.82
79645;BME280;69117;47.148;18.954;2023-07-24T09:11:03;100131.50;;;32.27;54.73
79645;BME280;69117;47.148;18.954;2023-07-24T09:14:06;100128.09;;;32.73;53.09
79645;BME280;69117;47.148;18.954;2023-07-24T09:17:20;100124.59;;;32.54;55.45
79645;BME280;69117;47.148;18.954;2023-07-24T09:20:22;100128.28;;;32.63;50.07
79645;BME280;69117;47.148;18.954;2023-07-24T09:23:28;100132.41;;;32.42;51.96
79645;BME280;69117;47.148;18.954;2023-07-24T09:26:30;100130.13;;;32.49;49.72
79645;BME280;69117;47.148;18.954;2023-07-24T09:29:33;100124.22;;;32.93;52.15
79645;BME280;69117;47.148;18.954;2023-07-24T09:32:35;100122.69;;;32.87;48.98
79645;BME280;69117;47.148;18.954;2023-07-24T09:35:39;100114.63;;;32.96;48.94
79645;BME280;69117;47.148;18.954;2023-07-24T09:38:41;100119.19;;;32.49;49.56
79645;BME280;69117;47.148;18.954;2023-07-24T09:41:43;100108.09;;;32.92;46.52
79645;BME280;69117;47.148;18.954;2023-07-24T09:44:49;100110.75;;;33.29;47.95
79645;BME280;69117;47.148;18.954;2023-07-24T09:47:51;100117.69;;;33.82;44.66
79645;BME280;69117;47.148;18.954;2023-07-24T09:51:00;100106.00;;;33.49;46.28
79645;BME280;69117;47.148;18.954;2023-07-24T09:54:29;100110.41;;;33.78;42.56
79645;BME280;69117;47.148;18.954;2023-07-24T09:57:34;100110.13;;;33.19;45.23
79645;BME280;69117;47.148;18.954;2023-07-24T10:00:36;100099.63;;;33.67;44.01
79645;BME280;69117;47.148;18.954;2023-07-24T10:03:46;100104.09;;;33.91;44.31
79645;BME280;69117;47.148;18.954;2023-07-24T10:06:49;100092.63;;;34.39;41.97
79645;BME280;69117;47.148;18.954;2023-07-24T10:09:51;100102.00;;;34.38;47.73
79645;BME280;69117;47.148;18.954;2023-07-24T10:12:53;100075.19;;;34.35;40.42
79645;BME280;69117;47.148;18.954;2023-07-24T10:15:55;100079.34;;;35.00;44.03
79645;BME280;69117;47.148;18.954;2023-07-24T10:18:58;100073.66;;;34.65;39.98
79645;BME280;69117;47.148;18.954;2023-07-24T10:21:59;100065.81;;;34.36;42.53
79645;BME280;69117;47.148;18.954;2023-07-24T10:25:01;100068.59;;;34.58;43.74
79645;BME280;69117;47.148;18.954;2023-07-24T10:28:05;100058.97;;;34.47;41.84
79645;BME280;69117;47.148;18.954;2023-07-24T10:31:23;100044.75;;;34.68;42.77
79645;BME280;69117;47.148;18.954;2023-07-24T10:34:36;100048.06;;;35.49;42.12
79645;BME280;69117;47.148;18.954;2023-07-24T10:37:38;100038.66;;;35.42;41.83
79645;BME280;69117;47.148;18.954;2023-07-24T10:40:41;100018.16;;;35.48;41.24
79645;BME280;69117;47.148;18.954;2023-07-24T10:43:47;100025.84;;;35.77;40.46
79645;BME280;69117;47.148;18.954;2023-07-24T10:46:51;100028.16;;;36.18;39.29
79645;BME280;69117;47.148;18.954;2023-07-24T10:49:52;100020.13;;;34.85;40.21
79645;BME280;69117;47.148;18.954;2023-07-24T10:52:54;100008.09;;;35.35;41.97
79645;BME280;69117;47.148;18.954;2023-07-24T10:55:56;100013.28;;;36.28;41.54
79645;BME280;69117;47.148;18.954;2023-07-24T10:59:05;100014.50;;;35.70;39.83
79645;BME280;69117;47.148;18.954;2023-07-24T11:02:07;99985.88;;;35.79;41.33
79645;BME280;69117;47.148;18.954;2023-07-24T11:05:09;99998.03;;;35.21;43.45
79645;BME280;69117;47.148;18.954;2023-07-24T11:08:11;100008.72;;;35.80;44.15
79645;BME280;69117;47.148;18.954;2023-07-24T11:11:16;99995.84;;;35.49;42.42
79645;BME280;69117;47.148;18.954;2023-07-24T11:14:18;99995.44;;;35.99;40.48
79645;BME280;69117;47.148;18.954;2023-07-24T11:17:20;99988.16;;;36.21;41.64
79645;BME280;69117;47.148;18.954;2023-07-24T11:20:22;99973.94;;;36.01;40.79
79645;BME280;69117;47.148;18.954;2023-07-24T11:23:24;99957.72;;;36.90;39.29
79645;BME280;69117;47.148;18.954;2023-07-24T11:26:26;99961.19;;;37.17;37.61
79645;BME280;69117;47.148;18.954;2023-07-24T11:29:30;99953.53;;;36.84;39.94
79645;BME280;69117;47.148;18.954;2023-07-24T11:32:31;99945.84;;;37.07;39.49
79645;BME280;69117;47.148;18.954;2023-07-24T11:35:34;99938.94;;;36.92;36.88
79645;BME280;69117;47.148;18.954;2023-07-24T11:38:36;99931.38;;;36.81;37.75
79645;BME280;69117;47.148;18.954;2023-07-24T11:41:40;99930.78;;;37.34;38.61
79645;BME280;69117;47.148;18.954;2023-07-24T11:44:41;99918.88;;;36.83;39.04
79645;BME280;69117;47.148;18.954;2023-07-24T11:47:48;99928.25;;;37.21;36.45
79645;BME280;69117;47.148;18.954;2023-07-24T11:50:55;99913.00;;;37.53;35.10
79645;BME280;69117;47.148;18.954;2023-07-24T11:54:11;99919.41;;;37.36;37.86
79645;BME280;69117;47.148;18.954;2023-07-24T11:57:15;99918.84;;;37.43;34.57
79645;BME280;69117;47.148;18.954;2023-07-24T12:00:19;99903.47;;;36.44;34.87
79645;BME280;69117;47.148;18.954;2023-07-24T12:03:24;99910.28;;;37.65;36.78
79645;BME280;69117;47.148;18.954;2023-07-24T12:06:26;99904.59;;;38.49;34.63
79645;BME280;69117;47.148;18.954;2023-07-24T12:09:31;99907.53;;;37.65;36.58
79645;BME280;69117;47.148;18.954;2023-07-24T12:12:48;99890.81;;;37.49;34.78
79645;BME280;69117;47.148;18.954;2023-07-24T12:15:52;99897.47;;;37.81;34.41
79645;BME280;69117;47.148;18.954;2023-07-24T12:18:54;99887.81;;;38.42;34.74
79645;BME280;69117;47.148;18.954;2023-07-24T12:21:55;99889.00;;;38.90;33.63
79645;BME280;69117;47.148;18.954;2023-07-24T12:24:59;99883.00;;;38.88;33.20
79645;BME280;69117;47.148;18.954;2023-07-24T12:28:00;99873.03;;;38.13;33.57
79645;BME280;69117;47.148;18.954;2023-07-24T12:31:02;99862.91;;;38.30;32.33
79645;BME280;69117;47.148;18.954;2023-07-24T12:34:05;99853.91;;;38.08;35.36
79645;BME280;69117;47.148;18.954;2023-07-24T12:37:06;99853.06;;;38.78;32.49
79645;BME280;69117;47.148;18.954;2023-07-24T12:40:08;99853.66;;;38.59;34.64
79645;BME280;69117;47.148;18.954;2023-07-24T12:43:10;99848.34;;;38.78;34.37
79645;BME280;69117;47.148;18.954;2023-07-24T12:46:12;99838.47;;;38.77;32.40
79645;BME280;69117;47.148;18.954;2023-07-24T12:49:13;99844.88;;;38.81;33.30
79645;BME280;69117;47.148;18.954;2023-07-24T12:52:16;99837.38;;;37.87;33.82
79645;BME280;69117;47.148;18.954;2023-07-24T12:55:17;99826.03;;;38.59;33.01
79645;BME280;69117;47.148;18.954;2023-07-24T12:58:19;99809.34;;;38.80;32.28
79645;BME280;69117;47.148;18.954;2023-07-24T13:01:21;99823.56;;;39.06;33.67
79645;BME280;69117;47.148;18.954;2023-07-24T13:04:23;99825.47;;;38.41;32.81
79645;BME280;69117;47.148;18.954;2023-07-24T13:07:25;99829.06;;;36.23;35.97
79645;BME280;69117;47.148;18.954;2023-07-24T13:10:27;99820.81;;;36.23;34.46
79645;BME280;69117;47.148;18.954;2023-07-24T13:13:28;99816.00;;;36.50;35.22
79645;BME280;69117;47.148;18.954;2023-07-24T13:16:32;99806.25;;;36.22;35.75
79645;BME280;69117;47.148;18.954;2023-07-24T13:19:34;99802.19;;;36.20;34.02
79645;BME280;69117;47.148;18.954;2023-07-24T13:22:36;99800.22;;;36.88;33.14
79645;BME280;69117;47.148;18.954;2023-07-24T13:25:38;99780.69;;;37.65;32.43
79645;BME280;69117;47.148;18.954;2023-07-24T13:28:39;99779.41;;;38.33;30.63
79645;BME280;69117;47.148;18.954;2023-07-24T13:31:41;99768.69;;;38.92;30.30
79645;BME280;69117;47.148;18.954;2023-07-24T13:34:43;99769.75;;;38.26;29.79
79645;BME280;69117;47.148;18.954;2023-07-24T13:37:46;99772.41;;;38.47;30.73
79645;BME280;69117;47.148;18.954;2023-07-24T13:40:47;99772.41;;;38.23;30.45
79645;BME280;69117;47.148;18.954;2023-07-24T13:43:49;99761.28;;;38.97;30.37
79645;BME280;69117;47.148;18.954;2023-07-24T13:46:50;99750.50;;;39.20;31.77
79645;BME280;69117;47.148;18.954;2023-07-24T13:49:52;99756.13;;;39.51;28.74
79645;BME280;69117;47.148;18.954;2023-07-24T13:52:54;99741.06;;;39.49;29.07
79645;BME280;69117;47.148;18.954;2023-07-24T13:55:56;99736.94;;;39.43;29.05
79645;BME280;69117;47.148;18.954;2023-07-24T13:58:58;99725.84;;;38.99;30.54
79645;BME280;69117;47.148;18.954;2023-07-24T14:01:59;99719.03;;;39.52;29.25
79645;BME280;69117;47.148;18.954;2023-07-24T14:05:01;99717.69;;;39.18;30.40
79645;BME280;69117;47.148;18.954;2023-07-24T14:08:03;99697.97;;;39.04;30.16
79645;BME280;69117;47.148;18.954;2023-07-24T14:11:05;99677.03;;;37.89;26.26
79645;BME280;69117;47.148;18.954;2023-07-24T14:14:07;99688.16;;;38.66;27.72
79645;BME280;69117;47.148;18.954;2023-07-24T14:17:08;99675.63;;;37.70;29.20
79645;BME280;69117;47.148;18.954;2023-07-24T14:20:10;99676.09;;;37.85;30.76
79645;BME280;69117;47.148;18.954;2023-07-24T14:23:12;99670.28;;;37.41;31.55
79645;BME280;69117;47.148;18.954;2023-07-24T14:26:14;99668.31;;;38.11;29.83
79645;BME280;69117;47.148;18.954;2023-07-24T14:29:15;99667.16;;;38.77;28.33
79645;BME280;69117;47.148;18.954;2023-07-24T14:32:20;99665.44;;;37.71;30.98
79645;BME280;69117;47.148;18.954;2023-07-24T14:35:22;99660.50;;;38.13;27.98
79645;BME280;69117;47.148;18.954;2023-07-24T14:38:23;99655.50;;;36.91;31.35
79645;BME280;69117;47.148;18.954;2023-07-24T14:41:25;99649.78;;;35.74;32.72
79645;BME280;69117;47.148;18.954;2023-07-24T14:44:26;99647.41;;;36.32;34.11
79645;BME280;69117;47.148;18.954;2023-07-24T14:47:29;99625.66;;;37.84;30.84
79645;BME280;69117;47.148;18.954;2023-07-24T14:50:30;99594.41;;;37.55;31.37
79645;BME280;69117;47.148;18.954;2023-07-24T14:53:32;99577.28;;;37.50;31.10
79645;BME280;69117;47.148;18.954;2023-07-24T14:56:34;99590.44;;;38.18;30.51
79645;BME280;69117;47.148;18.954;2023-07-24T14:59:55;99575.66;;;38.38;28.31
79645;BME280;69117;47.148;18.954;2023-07-24T15:02:57;99594.41;;;38.04;29.76
79645;BME280;69117;47.148;18.954;2023-07-24T15:05:58;99600.50;;;37.86;30.44
79645;BME280;69117;47.148;18.954;2023-07-24T15:09:05;99596.72;;;36.33;33.11
79645;BME280;69117;47.148;18.954;2023-07-24T15:12:07;99580.47;;;36.61;31.75
79645;BME280;69117;47.148;18.954;2023-07-24T15:15:09;99578.63;;;37.31;29.70
79645;BME280;69117;47.148;18.954;2023-07-24T15:18:10;99574.84;;;37.48;29.84
79645;BME280;69117;47.148;18.954;2023-07-24T15:21:12;99571.41;;;37.76;30.09
79645;BME280;69117;47.148;18.954;2023-07-24T15:24:14;99575.22;;;37.96;30.34
79645;BME280;69117;47.148;18.954;2023-07-24T15:27:19;99572.50;;;38.24;30.36
79645;BME280;69117;47.148;18.954;2023-07-24T15:30:20;99571.97;;;37.45;29.86
79645;BME280;69117;47.148;18.954;2023-07-24T15:33:22;99568.50;;;36.36;32.12
79645;BME280;69117;47.148;18.954;2023-07-24T15:36:24;99561.28;;;36.31;31.87
79645;BME280;69117;47.148;18.954;2023-07-24T15:39:25;99573.44;;;36.00;32.83
79645;BME280;69117;47.148;18.954;2023-07-24T15:42:27;99580.09;;;35.70;33.57